Time;durP1;ratioP1;P1;durP2;ratioP2;P2;SDS_P1;SDS_P2;PMS_P1;PMS_P2;Temp;Humidity;BMP_temperature;BMP_pressure;BME280_temperature;BME280_humidity;BME280_pressure;Samples;Min_cycle;Max_cycle;Signal;HPM_P1;HPM_P2
2021/04/17 00:03:13;;;;;;;;;;;21.70;40.30;;;;;;4695097;55;20292;-35
2021/04/17 00:08:14;;;;;;;;;;;21.70;40.30;;;;;;4695426;55;20054;-39
2021/04/17 00:13:14;;;;;;;;;;;21.70;40.30;;;;;;4696584;55;20240;-43
2021/04/17 00:18:15;;;;;;;;;;;21.70;40.20;;;;;;4697858;55;20198;-36
2021/04/17 00:23:16;;;;;;;;;;;21.80;40.20;;;;;;4699758;55;20196;-42
2021/04/17 00:28:16;;;;;;;;;;;21.80;40.20;;;;;;4691195;59;20117;-41
2021/04/17 00:33:17;;;;;;;;;;;21.70;40.10;;;;;;4749278;55;20067;-43
2021/04/17 00:38:18;;;;;;;;;;;21.70;40.10;;;;;;4726351;55;20141;-29
2021/04/17 00:43:18;;;;;;;;;;;21.80;40.10;;;;;;4700674;55;20097;-37
2021/04/17 00:48:19;;;;;;;;;;;21.70;40.00;;;;;;4712954;55;20070;-36
2021/04/17 00:53:20;;;;;;;;;;;21.70;40.10;;;;;;4705530;55;20112;-39
2021/04/17 00:58:20;;;;;;;;;;;21.70;40.00;;;;;;4753137;55;20073;-38
2021/04/17 01:03:41;;;;;;;;;;;21.70;40.50;;;;;;4690846;59;20327;-44
2021/04/17 01:09:01;;;;;;;;;;;21.80;40.10;;;;;;4704494;55;20303;-41
2021/04/17 01:14:02;;;;;;;;;;;21.80;40.00;;;;;;4718782;55;20115;-38
2021/04/17 01:19:07;;;;;;;;;;;21.70;39.80;;;;;;4694989;55;20129;-42
2021/04/17 01:24:11;;;;;;;;;;;21.70;39.90;;;;;;4709213;55;20097;-32
2021/04/17 01:29:12;;;;;;;;;;;21.70;39.80;;;;;;4716826;55;20093;-42
2021/04/17 01:34:13;;;;;;;;;;;21.70;39.90;;;;;;4730322;55;20165;-36
2021/04/17 01:39:16;;;;;;;;;;;21.70;39.80;;;;;;4695220;55;20153;-42
2021/04/17 01:44:25;;;;;;;;;;;21.70;39.70;;;;;;4698960;55;20340;-42
2021/04/17 01:49:26;;;;;;;;;;;21.70;39.80;;;;;;4693171;55;20113;-39
2021/04/17 01:54:28;;;;;;;;;;;21.70;39.70;;;;;;4720936;55;20105;-32
2021/04/17 01:59:32;;;;;;;;;;;21.70;39.70;;;;;;4691961;55;20061;-35
2021/04/17 02:04:33;;;;;;;;;;;21.70;39.70;;;;;;4788677;55;20093;-39
2021/04/17 02:09:34;;;;;;;;;;;21.70;39.60;;;;;;4729753;55;20054;-28
2021/04/17 02:14:34;;;;;;;;;;;21.70;39.60;;;;;;4712806;55;20058;-38
2021/04/17 02:19:48;;;;;;;;;;;21.70;39.70;;;;;;4710568;55;20053;-37
2021/04/17 02:24:49;;;;;;;;;;;21.70;39.40;;;;;;4693630;55;20073;-39
2021/04/17 02:29:53;;;;;;;;;;;21.70;39.50;;;;;;4719049;55;20344;-39
2021/04/17 02:34:54;;;;;;;;;;;21.70;39.40;;;;;;4769555;55;20073;-34
2021/04/17 02:39:54;;;;;;;;;;;21.70;39.50;;;;;;4745130;55;20058;-44
2021/04/17 02:44:55;;;;;;;;;;;21.70;39.40;;;;;;4704658;55;20077;-38
2021/04/17 02:49:58;;;;;;;;;;;21.70;39.50;;;;;;4691569;55;20984;-41
2021/04/17 02:54:59;;;;;;;;;;;21.70;39.40;;;;;;4691073;59;20390;-26
2021/04/17 03:00:00;;;;;;;;;;;21.70;39.40;;;;;;4753012;55;20671;-36
2021/04/17 03:05:03;;;;;;;;;;;21.70;39.30;;;;;;4714923;55;20069;-35
2021/04/17 03:10:06;;;;;;;;;;;21.70;39.30;;;;;;4715926;55;20184;-36
2021/04/17 03:15:07;;;;;;;;;;;21.70;39.30;;;;;;4709420;55;20089;-37
2021/04/17 03:20:09;;;;;;;;;;;21.70;39.20;;;;;;4714855;55;20660;-45
2021/04/17 03:25:10;;;;;;;;;;;21.70;39.30;;;;;;4691989;55;20093;-41
2021/04/17 03:30:13;;;;;;;;;;;21.60;39.20;;;;;;4705374;55;20754;-37
2021/04/17 03:35:14;;;;;;;;;;;21.70;39.30;;;;;;4742981;55;20070;-39
2021/04/17 03:40:15;;;;;;;;;;;21.70;39.20;;;;;;4703459;55;20225;-35
2021/04/17 03:45:16;;;;;;;;;;;21.70;39.80;;;;;;4728841;55;20117;-45
2021/04/17 03:50:17;;;;;;;;;;;21.70;39.20;;;;;;4719720;55;20300;-44
2021/04/17 03:55:18;;;;;;;;;;;21.70;39.20;;;;;;4735102;55;20057;-48
2021/04/17 04:00:20;;;;;;;;;;;21.60;39.20;;;;;;4698840;55;20054;-38
2021/04/17 04:05:20;;;;;;;;;;;21.60;39.10;;;;;;4692023;59;20292;-39
2021/04/17 04:10:21;;;;;;;;;;;21.60;39.10;;;;;;4699905;55;20066;-45
2021/04/17 04:15:22;;;;;;;;;;;21.60;39.10;;;;;;4739267;55;20121;-39
2021/04/17 04:20:23;;;;;;;;;;;21.60;39.10;;;;;;4730035;55;20077;-40
2021/04/17 04:25:23;;;;;;;;;;;21.70;39.10;;;;;;4691170;59;20157;-34
2021/04/17 04:30:24;;;;;;;;;;;21.60;39.10;;;;;;4690804;56;20077;-41
2021/04/17 04:35:25;;;;;;;;;;;21.60;39.20;;;;;;4712137;55;20081;-37
2021/04/17 04:40:25;;;;;;;;;;;21.60;39.20;;;;;;4704933;55;20168;-42
2021/04/17 04:45:26;;;;;;;;;;;21.60;39.20;;;;;;4772671;55;20293;-35
2021/04/17 04:50:27;;;;;;;;;;;21.60;39.20;;;;;;4738605;55;20082;-43
2021/04/17 04:55:27;;;;;;;;;;;21.60;39.20;;;;;;4691261;59;20092;-42
2021/04/17 05:00:28;;;;;;;;;;;21.60;39.20;;;;;;4719515;55;20077;-43
2021/04/17 05:05:28;;;;;;;;;;;21.60;39.30;;;;;;4709881;55;20696;-39
2021/04/17 05:10:29;;;;;;;;;;;21.60;39.50;;;;;;4698272;55;20114;-37
2021/04/17 05:15:30;;;;;;;;;;;21.70;39.70;;;;;;4691304;59;20178;-35
2021/04/17 05:20:30;;;;;;;;;;;21.60;39.60;;;;;;4702931;55;20110;-30
2021/04/17 05:25:32;;;;;;;;;;;21.60;39.80;;;;;;4698952;55;20073;-39
2021/04/17 05:30:33;;;;;;;;;;;21.60;39.70;;;;;;4735942;55;20114;-31
2021/04/17 05:35:35;;;;;;;;;;;21.70;39.80;;;;;;4717251;55;20110;-38
2021/04/17 05:40:35;;;;;;;;;;;21.60;39.70;;;;;;4706401;55;20125;-36
2021/04/17 05:45:39;;;;;;;;;;;21.60;39.70;;;;;;4691077;59;20065;-35
2021/04/17 05:50:39;;;;;;;;;;;21.70;39.80;;;;;;4711245;55;20323;-42
2021/04/17 05:55:40;;;;;;;;;;;21.60;39.70;;;;;;4729483;55;20105;-36
2021/04/17 06:00:40;;;;;;;;;;;21.60;39.70;;;;;;4737734;55;20166;-33
2021/04/17 06:05:41;;;;;;;;;;;21.60;39.70;;;;;;4692073;55;20157;-36
2021/04/17 06:10:42;;;;;;;;;;;21.60;39.80;;;;;;4690145;56;20074;-31
2021/04/17 06:15:42;;;;;;;;;;;21.60;39.70;;;;;;4715164;55;20078;-35
2021/04/17 06:20:43;;;;;;;;;;;21.60;39.70;;;;;;4769473;55;20093;-38
2021/04/17 06:25:43;;;;;;;;;;;21.60;39.70;;;;;;4716634;55;20120;-35
2021/04/17 06:30:44;;;;;;;;;;;21.60;39.70;;;;;;4690250;55;20077;-34
2021/04/17 06:35:45;;;;;;;;;;;21.60;39.70;;;;;;4711966;55;20058;-33
2021/04/17 06:40:45;;;;;;;;;;;21.60;39.70;;;;;;4694032;55;20097;-38
2021/04/17 06:45:46;;;;;;;;;;;21.60;39.80;;;;;;4715510;55;20113;-31
2021/04/17 06:50:48;;;;;;;;;;;21.60;39.70;;;;;;4691092;59;20128;-33
2021/04/17 06:55:50;;;;;;;;;;;21.60;39.70;;;;;;4744304;55;20148;-34
2021/04/17 07:00:50;;;;;;;;;;;21.60;40.40;;;;;;4704565;55;20058;-35
2021/04/17 07:05:51;;;;;;;;;;;21.60;39.80;;;;;;4696233;55;20288;-35
2021/04/17 07:10:52;;;;;;;;;;;21.60;39.70;;;;;;4693853;55;20109;-44
2021/04/17 07:15:53;;;;;;;;;;;21.60;39.70;;;;;;4704975;55;20137;-36
2021/04/17 07:20:54;;;;;;;;;;;21.60;39.70;;;;;;4694947;55;20350;-24
2021/04/17 07:26:11;;;;;;;;;;;21.60;39.70;;;;;;4711366;55;20062;-31
2021/04/17 07:31:13;;;;;;;;;;;21.60;39.60;;;;;;4693651;55;20366;-35
2021/04/17 07:36:17;;;;;;;;;;;21.60;39.70;;;;;;4718518;55;20122;-31
2021/04/17 07:41:20;;;;;;;;;;;21.60;39.70;;;;;;4734977;55;20383;-32
2021/04/17 07:46:22;;;;;;;;;;;21.60;39.70;;;;;;4700531;55;20089;-35
2021/04/17 07:51:22;;;;;;;;;;;21.60;39.70;;;;;;4690272;59;20117;-43
2021/04/17 07:56:34;;;;;;;;;;;21.60;39.70;;;;;;4691119;59;20089;-33
2021/04/17 08:01:35;;;;;;;;;;;21.60;39.80;;;;;;4699258;55;20066;-34
2021/04/17 08:06:35;;;;;;;;;;;21.60;39.80;;;;;;4712718;55;20055;-39
2021/04/17 08:11:36;;;;;;;;;;;21.60;39.70;;;;;;4717295;55;20069;-36
2021/04/17 08:16:39;;;;;;;;;;;21.60;39.70;;;;;;4717349;55;20095;-35
2021/04/17 08:21:41;;;;;;;;;;;21.60;39.70;;;;;;4712336;55;20080;-34
2021/04/17 08:26:41;;;;;;;;;;;21.60;39.80;;;;;;4694298;55;20073;-32
2021/04/17 08:31:44;;;;;;;;;;;21.60;39.80;;;;;;4703664;55;20165;-32
2021/04/17 08:36:52;;;;;;;;;;;21.60;39.80;;;;;;4712872;55;20053;-37
2021/04/17 08:41:52;;;;;;;;;;;21.60;39.80;;;;;;4701279;55;20066;-35
2021/04/17 08:46:54;;;;;;;;;;;21.60;39.80;;;;;;4696325;55;20094;-33
2021/04/17 08:52:14;;;;;;;;;;;21.60;39.80;;;;;;4690845;59;20129;-34
2021/04/17 08:57:16;;;;;;;;;;;21.60;39.80;;;;;;4779132;55;20327;-37
2021/04/17 09:02:17;;;;;;;;;;;21.60;39.80;;;;;;4716713;55;20089;-47
2021/04/17 09:07:18;;;;;;;;;;;21.60;39.80;;;;;;4721014;55;20288;-35
2021/04/17 09:12:20;;;;;;;;;;;21.60;39.80;;;;;;4696343;55;20065;-34
2021/04/17 09:17:36;;;;;;;;;;;21.60;39.80;;;;;;4691302;59;20058;-37
2021/04/17 09:22:46;;;;;;;;;;;21.60;39.90;;;;;;4708084;55;20287;-32
2021/04/17 09:27:50;;;;;;;;;;;21.60;39.90;;;;;;4707390;55;20081;-32
2021/04/17 09:32:52;;;;;;;;;;;21.60;39.90;;;;;;4694294;55;20121;-30
2021/04/17 09:38:10;;;;;;;;;;;21.60;39.90;;;;;;4692230;55;20086;-34
2021/04/17 09:43:21;;;;;;;;;;;21.60;39.90;;;;;;4735062;55;20122;-33
2021/04/17 09:48:22;;;;;;;;;;;21.60;39.90;;;;;;4725015;55;20073;-33
2021/04/17 09:53:30;;;;;;;;;;;21.70;39.90;;;;;;4758094;55;20085;-35
2021/04/17 09:58:35;;;;;;;;;;;21.60;39.90;;;;;;4707383;55;20323;-37
2021/04/17 10:03:37;;;;;;;;;;;21.60;39.90;;;;;;4690983;59;20344;-30
2021/04/17 10:08:37;;;;;;;;;;;21.60;39.90;;;;;;4696689;55;20070;-37
2021/04/17 10:13:42;;;;;;;;;;;21.60;40.00;;;;;;4691515;56;20331;-36
2021/04/17 10:18:44;;;;;;;;;;;21.60;40.00;;;;;;4699948;55;20061;-34
2021/04/17 10:24:13;;;;;;;;;;;21.60;39.90;;;;;;4709056;55;20633;-28
2021/04/17 10:29:13;;;;;;;;;;;21.60;40.00;;;;;;4717063;55;20138;-34
2021/04/17 10:34:21;;;;;;;;;;;21.60;40.00;;;;;;4706873;55;20109;-33
2021/04/17 10:39:22;;;;;;;;;;;21.60;40.00;;;;;;4709969;55;20160;-36
2021/04/17 10:44:22;;;;;;;;;;;21.60;40.00;;;;;;4698475;55;20097;-30
2021/04/17 10:49:35;;;;;;;;;;;21.60;40.00;;;;;;4738020;55;20319;-34
2021/04/17 10:54:49;;;;;;;;;;;21.60;40.00;;;;;;4735528;55;20113;-34
2021/04/17 11:00:04;;;;;;;;;;;21.70;40.10;;;;;;4693723;55;20097;-35
2021/04/17 11:05:06;;;;;;;;;;;21.60;40.00;;;;;;4722511;55;20296;-38
2021/04/17 11:10:08;;;;;;;;;;;21.60;40.00;;;;;;4803366;55;20066;-36
2021/04/17 11:15:16;;;;;;;;;;;21.60;40.00;;;;;;4716116;55;20065;-39
2021/04/17 11:20:21;;;;;;;;;;;21.70;40.10;;;;;;4795157;55;20065;-36
2021/04/17 11:25:21;;;;;;;;;;;21.60;40.10;;;;;;4693155;55;20065;-34
2021/04/17 11:30:22;;;;;;;;;;;21.70;40.10;;;;;;4690004;59;20129;-39
2021/04/17 11:35:23;;;;;;;;;;;21.70;40.10;;;;;;4705219;55;20129;-31
2021/04/17 11:40:23;;;;;;;;;;;21.70;40.50;;;;;;4691466;59;20364;-34
2021/04/17 11:45:24;;;;;;;;;;;21.60;40.10;;;;;;4707169;55;20069;-34
2021/04/17 11:50:25;;;;;;;;;;;21.60;40.10;;;;;;4698274;55;20101;-30
2021/04/17 11:55:25;;;;;;;;;;;21.70;40.20;;;;;;4708437;55;20149;-35
2021/04/17 12:00:26;;;;;;;;;;;21.70;40.20;;;;;;4691700;59;20600;-30
2021/04/17 12:05:27;;;;;;;;;;;21.70;40.10;;;;;;4692992;55;20165;-35
2021/04/17 12:10:27;;;;;;;;;;;21.70;40.10;;;;;;4701810;55;20138;-38
2021/04/17 12:15:28;;;;;;;;;;;21.60;40.10;;;;;;4756636;55;20354;-36
2021/04/17 12:20:29;;;;;;;;;;;21.70;40.10;;;;;;4690776;59;20110;-35
2021/04/17 12:25:29;;;;;;;;;;;21.70;40.20;;;;;;4690766;59;20165;-34
2021/04/17 12:30:30;;;;;;;;;;;21.70;40.10;;;;;;4713403;55;20104;-33
2021/04/17 12:35:31;;;;;;;;;;;21.70;40.10;;;;;;4703746;55;20065;-34
2021/04/17 12:40:31;;;;;;;;;;;21.70;40.30;;;;;;4765545;55;20089;-37
2021/04/17 12:45:33;;;;;;;;;;;21.70;40.20;;;;;;4708899;55;20356;-42
2021/04/17 12:50:34;;;;;;;;;;;21.70;40.20;;;;;;4720018;55;20073;-36
2021/04/17 12:55:35;;;;;;;;;;;21.70;40.20;;;;;;4709179;55;20186;-34
2021/04/17 13:00:36;;;;;;;;;;;21.70;40.20;;;;;;4706246;55;20113;-33
2021/04/17 13:05:37;;;;;;;;;;;21.70;40.20;;;;;;4698775;55;20359;-40
2021/04/17 13:10:38;;;;;;;;;;;21.70;40.20;;;;;;4764871;55;20187;-34
2021/04/17 13:15:38;;;;;;;;;;;21.60;40.10;;;;;;4733138;55;20101;-37
2021/04/17 13:20:39;;;;;;;;;;;21.70;40.20;;;;;;4705271;55;20114;-37
2021/04/17 13:25:40;;;;;;;;;;;21.70;40.20;;;;;;4741529;55;20078;-35
2021/04/17 13:30:41;;;;;;;;;;;21.70;40.20;;;;;;4707564;55;20117;-39
2021/04/17 13:35:41;;;;;;;;;;;21.70;40.20;;;;;;4692370;55;20113;-42
2021/04/17 13:40:42;;;;;;;;;;;21.70;40.20;;;;;;4809647;55;20173;-41
2021/04/17 13:45:43;;;;;;;;;;;21.70;40.30;;;;;;4702161;55;20201;-36
2021/04/17 13:50:43;;;;;;;;;;;21.70;40.30;;;;;;4717943;55;20113;-36
2021/04/17 13:55:44;;;;;;;;;;;21.70;40.40;;;;;;4720155;55;20062;-37
2021/04/17 14:00:45;;;;;;;;;;;21.70;40.30;;;;;;4706449;55;20113;-42
2021/04/17 14:05:45;;;;;;;;;;;21.70;40.40;;;;;;4691016;59;20069;-42
2021/04/17 14:10:47;;;;;;;;;;;21.70;40.40;;;;;;4691444;56;20066;-36
2021/04/17 14:15:47;;;;;;;;;;;21.70;40.30;;;;;;4691249;59;20331;-39
2021/04/17 14:20:48;;;;;;;;;;;21.70;40.40;;;;;;4691930;59;20114;-45
2021/04/17 14:25:49;;;;;;;;;;;21.70;40.30;;;;;;4698407;55;20068;-32
2021/04/17 14:30:50;;;;;;;;;;;21.70;40.70;;;;;;4724915;55;20181;-41
2021/04/17 14:35:51;;;;;;;;;;;21.70;40.30;;;;;;4698409;55;20320;-38
2021/04/17 14:40:52;;;;;;;;;;;21.70;40.40;;;;;;4691070;59;20065;-37
2021/04/17 14:45:53;;;;;;;;;;;21.70;40.30;;;;;;4739580;55;20101;-38
2021/04/17 14:50:53;;;;;;;;;;;21.70;40.50;;;;;;4691099;59;20116;-36
2021/04/17 14:55:54;;;;;;;;;;;21.70;40.40;;;;;;4724195;55;20106;-37
2021/04/17 15:00:55;;;;;;;;;;;21.70;40.50;;;;;;4738391;55;20097;-45
2021/04/17 15:05:55;;;;;;;;;;;21.70;40.40;;;;;;4691409;56;20073;-35
2021/04/17 15:10:59;;;;;;;;;;;21.70;40.40;;;;;;4697860;55;20178;-42
2021/04/17 15:16:00;;;;;;;;;;;21.70;40.40;;;;;;4703176;55;20324;-44
2021/04/17 15:21:00;;;;;;;;;;;21.70;40.40;;;;;;4691533;56;20085;-36
2021/04/17 15:26:02;;;;;;;;;;;21.70;40.40;;;;;;4706963;55;20113;-40
2021/04/17 15:31:04;;;;;;;;;;;21.70;40.40;;;;;;4690312;59;20085;-32
2021/04/17 15:36:05;;;;;;;;;;;21.70;40.40;;;;;;4729141;55;20121;-38
2021/04/17 15:41:08;;;;;;;;;;;21.70;40.40;;;;;;4723200;55;20073;-30
2021/04/17 15:46:10;;;;;;;;;;;21.70;40.40;;;;;;4719960;55;20109;-36
2021/04/17 15:51:11;;;;;;;;;;;21.60;40.30;;;;;;4718333;55;21148;-39
2021/04/17 15:56:12;;;;;;;;;;;21.70;40.40;;;;;;4691955;55;20097;-40
2021/04/17 16:19:25;;;;;;;;;;;21.70;40.30;;;;;;4696312;55;20085;-41
2021/04/17 16:24:26;;;;;;;;;;;21.70;40.40;;;;;;4700288;55;20117;-33
2021/04/17 16:29:27;;;;;;;;;;;21.70;40.20;;;;;;4710766;55;20129;-43
2021/04/17 16:34:28;;;;;;;;;;;21.70;40.40;;;;;;4724221;55;20323;-30
2021/04/17 16:39:28;;;;;;;;;;;21.70;40.30;;;;;;4713976;55;20162;-36
2021/04/17 16:44:29;;;;;;;;;;;21.70;40.30;;;;;;4721887;55;20360;-44
2021/04/17 16:49:29;;;;;;;;;;;21.70;40.20;;;;;;4693120;55;20165;-44
2021/04/17 16:54:30;;;;;;;;;;;21.70;40.30;;;;;;4706744;55;20113;-45
2021/04/17 16:59:31;;;;;;;;;;;21.70;40.40;;;;;;4691077;55;20077;-50
2021/04/17 17:04:32;;;;;;;;;;;21.70;40.20;;;;;;4752263;55;20070;-35
2021/04/17 17:09:32;;;;;;;;;;;21.70;40.30;;;;;;4701327;55;20068;-32
2021/04/17 17:14:33;;;;;;;;;;;21.70;40.30;;;;;;4718403;55;20118;-39
2021/04/17 17:19:34;;;;;;;;;;;21.70;40.20;;;;;;4704050;55;20093;-35
2021/04/17 17:24:34;;;;;;;;;;;21.70;40.20;;;;;;4746491;55;20141;-44
2021/04/17 17:29:36;;;;;;;;;;;21.70;40.20;;;;;;4690680;59;20065;-36
2021/04/17 17:34:37;;;;;;;;;;;21.70;40.20;;;;;;4703482;55;20070;-37
2021/04/17 17:39:38;;;;;;;;;;;21.70;40.20;;;;;;4691367;59;20053;-35
2021/04/17 17:44:38;;;;;;;;;;;21.70;40.30;;;;;;4715463;55;20053;-40
2021/04/17 17:49:39;;;;;;;;;;;21.70;40.20;;;;;;4738388;55;20126;-37
2021/04/17 17:54:40;;;;;;;;;;;21.70;40.20;;;;;;4691367;59;20303;-36
2021/04/17 17:59:40;;;;;;;;;;;21.70;40.20;;;;;;4732095;55;20181;-33
2021/04/17 18:04:41;;;;;;;;;;;21.70;40.30;;;;;;4731997;55;20256;-36
2021/04/17 18:09:42;;;;;;;;;;;21.70;40.20;;;;;;4690542;59;20097;-31
2021/04/17 18:14:42;;;;;;;;;;;21.70;40.20;;;;;;4710381;55;20121;-38
2021/04/17 18:19:44;;;;;;;;;;;21.70;40.20;;;;;;4691232;59;20077;-33
2021/04/17 18:24:45;;;;;;;;;;;21.70;40.20;;;;;;4709367;55;20379;-37
2021/04/17 18:29:45;;;;;;;;;;;21.70;40.30;;;;;;4701763;55;20074;-37
2021/04/17 18:34:46;;;;;;;;;;;21.70;40.20;;;;;;4741246;55;20285;-39
2021/04/17 18:39:47;;;;;;;;;;;21.70;40.20;;;;;;4706209;55;20069;-42
2021/04/17 18:44:47;;;;;;;;;;;21.70;40.40;;;;;;4725783;55;20341;-39
2021/04/17 18:49:48;;;;;;;;;;;21.70;40.20;;;;;;4740349;55;20125;-38
2021/04/17 18:54:48;;;;;;;;;;;21.70;40.20;;;;;;4714564;55;20351;-29
2021/04/17 18:59:52;;;;;;;;;;;21.70;40.20;;;;;;4691533;56;20296;-36
2021/04/17 19:04:53;;;;;;;;;;;21.70;40.20;;;;;;4691521;59;20088;-41
2021/04/17 19:09:53;;;;;;;;;;;21.60;40.20;;;;;;4690624;59;20141;-42
2021/04/17 19:14:54;;;;;;;;;;;21.60;40.20;;;;;;4705876;55;20085;-40
2021/04/17 19:19:55;;;;;;;;;;;21.70;40.20;;;;;;4691036;59;20623;-33
2021/04/17 19:24:56;;;;;;;;;;;21.70;40.10;;;;;;4734719;55;20089;-40
2021/04/17 19:29:57;;;;;;;;;;;21.70;40.10;;;;;;4697890;55;20752;-38
2021/04/17 19:34:57;;;;;;;;;;;21.60;40.10;;;;;;4700081;55;20077;-43
2021/04/17 19:39:58;;;;;;;;;;;21.70;40.20;;;;;;4702518;55;20110;-39
2021/04/17 19:44:59;;;;;;;;;;;21.70;40.10;;;;;;4709900;55;20057;-42
2021/04/17 19:49:59;;;;;;;;;;;21.70;40.10;;;;;;4701438;55;20105;-42
2021/04/17 19:55:00;;;;;;;;;;;21.60;40.10;;;;;;4691861;59;20117;-40
2021/04/17 20:00:01;;;;;;;;;;;21.60;40.00;;;;;;4709635;55;20132;-44
2021/04/17 20:05:02;;;;;;;;;;;21.60;40.10;;;;;;4713039;55;20121;-37
2021/04/17 20:10:04;;;;;;;;;;;21.70;40.00;;;;;;4690032;59;20288;-36
2021/04/17 20:15:05;;;;;;;;;;;21.70;40.00;;;;;;4749238;55;20129;-34
2021/04/17 20:20:07;;;;;;;;;;;21.60;40.00;;;;;;4691246;59;20057;-41
2021/04/17 20:25:08;;;;;;;;;;;21.70;40.00;;;;;;4726653;55;20073;-43
2021/04/17 20:30:09;;;;;;;;;;;21.70;40.10;;;;;;4738743;55;20092;-40
2021/04/17 20:35:11;;;;;;;;;;;21.60;40.00;;;;;;4728183;55;20304;-34
2021/04/17 20:40:12;;;;;;;;;;;21.60;40.00;;;;;;4691859;55;20356;-42
2021/04/17 20:45:13;;;;;;;;;;;21.60;40.00;;;;;;4732210;55;20134;-44
2021/04/17 20:50:14;;;;;;;;;;;21.70;40.10;;;;;;4709810;55;20245;-39
2021/04/17 20:55:15;;;;;;;;;;;21.70;40.10;;;;;;4717240;55;20085;-43
2021/04/17 21:00:16;;;;;;;;;;;21.60;40.10;;;;;;4711323;55;20184;-40
2021/04/17 21:05:17;;;;;;;;;;;21.60;40.00;;;;;;4786692;55;20292;-44
2021/04/17 21:10:18;;;;;;;;;;;21.70;40.10;;;;;;4690238;55;20117;-34
2021/04/17 21:15:18;;;;;;;;;;;21.70;40.10;;;;;;4709481;55;20356;-38
2021/04/17 21:20:20;;;;;;;;;;;21.70;40.10;;;;;;4691785;59;20058;-34
2021/04/17 21:25:21;;;;;;;;;;;21.60;40.70;;;;;;4740359;55;20121;-44
2021/04/17 21:30:22;;;;;;;;;;;21.60;40.00;;;;;;4729135;55;20113;-41
2021/04/17 21:35:22;;;;;;;;;;;21.70;40.00;;;;;;4700973;55;20069;-37
2021/04/17 21:40:24;;;;;;;;;;;21.70;40.10;;;;;;4733435;55;20098;-39
2021/04/17 21:45:24;;;;;;;;;;;21.60;40.00;;;;;;4738672;55;20356;-34
2021/04/17 21:50:25;;;;;;;;;;;21.60;40.00;;;;;;4713173;55;20122;-36
2021/04/17 21:55:27;;;;;;;;;;;21.70;40.10;;;;;;4765336;55;20295;-39
2021/04/17 22:00:42;;;;;;;;;;;21.70;40.10;;;;;;4691222;59;20155;-30
2021/04/17 22:05:42;;;;;;;;;;;21.60;40.10;;;;;;4692564;55;20284;-41
2021/04/17 22:10:43;;;;;;;;;;;21.60;40.00;;;;;;4717845;55;20111;-32
2021/04/17 22:15:44;;;;;;;;;;;21.60;40.10;;;;;;4708131;55;20106;-37
2021/04/17 22:20:45;;;;;;;;;;;21.70;40.00;;;;;;4693873;55;20072;-41
2021/04/17 22:25:45;;;;;;;;;;;21.60;40.70;;;;;;4694588;55;20065;-35
2021/04/17 22:30:46;;;;;;;;;;;21.60;40.00;;;;;;4690588;59;20141;-40
2021/04/17 22:35:47;;;;;;;;;;;21.60;40.10;;;;;;4762704;55;20117;-45
2021/04/17 22:40:47;;;;;;;;;;;21.70;40.10;;;;;;4696054;55;20327;-39
2021/04/17 22:45:48;;;;;;;;;;;21.70;40.10;;;;;;4692185;55;20068;-43
2021/04/17 22:50:49;;;;;;;;;;;21.60;40.10;;;;;;4690843;59;20157;-41
2021/04/17 22:55:50;;;;;;;;;;;21.60;40.10;;;;;;4721905;55;20054;-39
2021/04/17 23:00:51;;;;;;;;;;;21.60;40.10;;;;;;4692548;55;20057;-38
2021/04/17 23:05:51;;;;;;;;;;;21.60;40.10;;;;;;4726899;55;20053;-40
2021/04/17 23:10:52;;;;;;;;;;;21.70;40.10;;;;;;4751379;55;20061;-45
2021/04/17 23:15:53;;;;;;;;;;;21.60;40.10;;;;;;4744431;55;20354;-35
2021/04/17 23:20:53;;;;;;;;;;;21.60;40.10;;;;;;4718844;55;20102;-41
2021/04/17 23:25:54;;;;;;;;;;;21.60;40.10;;;;;;4704687;55;20315;-45
2021/04/17 23:30:55;;;;;;;;;;;21.60;40.10;;;;;;4696128;55;20157;-36
2021/04/17 23:35:55;;;;;;;;;;;21.60;40.30;;;;;;4725838;55;20069;-40
2021/04/17 23:40:56;;;;;;;;;;;21.60;40.20;;;;;;4703554;55;20065;-40
2021/04/17 23:45:56;;;;;;;;;;;21.60;40.20;;;;;;4719294;55;20088;-45
2021/04/17 23:50:57;;;;;;;;;;;21.60;40.10;;;;;;4691302;55;20597;-42
2021/04/17 23:55:59;;;;;;;;;;;21.60;40.10;;;;;;4691052;57;20113;-43
